Time;durP1;ratioP1;P1;durP2;ratioP2;P2;SDS_P1;SDS_P2;PMS_P1;PMS_P2;Temp;Humidity;BMP_temperature;BMP_pressure;BME280_temperature;BME280_humidity;BME280_pressure;Samples;Min_cycle;Max_cycle;Signal;HPM_P1;HPM_P2
2024/04/16 00:00:12;;;;;;;0.50;0.50;;;;;;;4.50;95.14;96068.94;29395;198;63005;-56
2024/04/16 00:00:43;;;;;;;0.60;0.60;;;;;;;4.49;95.52;96072.72;29395;233;63009;-56
2024/04/16 00:01:14;;;;;;;0.60;0.60;;;;;;;4.50;95.53;96074.31;29395;202;63010;-55
2024/04/16 00:01:47;;;;;;;0.50;0.50;;;;;;;4.48;96.07;96073.00;29395;240;63009;-57
2024/04/16 00:02:19;;;;;;;0.60;0.60;;;;;;;4.45;95.44;96077.03;29395;210;63005;-81
2024/04/16 00:02:50;;;;;;;0.60;0.60;;;;;;;4.44;95.50;96078.09;29395;273;63009;-56
2024/04/16 00:03:22;;;;;;;0.60;0.60;;;;;;;4.43;95.63;96084.56;29395;197;63005;-56
2024/04/16 00:03:53;;;;;;;0.82;0.82;;;;;;;4.47;95.66;96080.25;29395;294;63009;-56
2024/04/16 00:04:24;;;;;;;0.60;0.60;;;;;;;4.49;95.49;96080.78;29393;227;64009;-56
2024/04/16 00:04:56;;;;;;;0.60;0.60;;;;;;;4.50;95.29;96079.69;29395;247;63012;-56
2024/04/16 00:05:27;;;;;;;0.60;0.60;;;;;;;4.51;94.96;96080.47;29395;251;63004;-78
2024/04/16 00:05:59;;;;;;;0.60;0.60;;;;;;;4.51;94.99;96075.91;29395;210;63009;-56
2024/04/16 00:06:31;;;;;;;0.50;0.50;;;;;;;4.51;95.38;96073.22;29395;199;63004;-56
2024/04/16 00:07:02;;;;;;;0.60;0.60;;;;;;;4.49;95.13;96078.09;29395;219;63008;-69
2024/04/16 00:07:33;;;;;;;0.60;0.60;;;;;;;4.47;95.51;96077.56;29395;258;63005;-56
2024/04/16 00:08:06;;;;;;;0.60;0.60;;;;;;;4.46;95.97;96070.56;29394;236;63009;-57
2024/04/16 00:08:37;;;;;;;0.50;0.50;;;;;;;4.47;95.53;96064.12;29395;224;63005;-73
2024/04/16 00:09:08;;;;;;;0.60;0.60;;;;;;;4.44;95.54;96067.34;29395;212;63009;-56
2024/04/16 00:09:41;;;;;;;0.60;0.60;;;;;;;4.41;95.49;96062.53;29393;319;64009;-56
2024/04/16 00:10:12;;;;;;;0.60;0.60;;;;;;;4.42;95.52;96066.81;29395;207;63009;-56
2024/04/16 00:10:43;;;;;;;0.50;0.50;;;;;;;4.46;95.47;96062.53;29395;202;63005;-55
2024/04/16 00:11:14;;;;;;;0.60;0.60;;;;;;;4.47;95.77;96064.12;29395;213;63009;-56
2024/04/16 00:11:46;;;;;;;0.60;0.60;;;;;;;4.51;95.82;96057.09;29395;202;63004;-74
2024/04/16 00:12:17;;;;;;;0.60;0.60;;;;;;;4.52;95.42;96066.75;29395;278;63009;-56
2024/04/16 00:12:48;;;;;;;0.60;0.60;;;;;;;4.51;95.24;96070.53;29395;198;63004;-56
2024/04/16 00:13:19;;;;;;;0.60;0.60;;;;;;;4.53;94.96;96062.19;29395;205;63009;-56
2024/04/16 00:13:51;;;;;;;0.60;0.60;;;;;;;4.50;94.37;96060.09;29394;219;64004;-69
2024/04/16 00:14:22;;;;;;;0.50;0.50;;;;;;;4.49;94.02;96056.59;29395;239;63004;-59
2024/04/16 00:14:58;;;;;;;0.60;0.60;;;;;;;4.53;94.43;96063.00;29393;362;64008;-56
2024/04/16 00:15:30;;;;;;;0.60;0.60;;;;;;;4.57;94.27;96058.69;29395;205;63014;-57
2024/04/16 00:16:02;;;;;;;0.60;0.60;;;;;;;4.57;93.74;96056.00;29395;219;63005;-76
2024/04/16 00:16:33;;;;;;;0.60;0.60;;;;;;;4.57;94.49;96058.69;29395;206;63025;-58
2024/04/16 00:17:04;;;;;;;0.60;0.60;;;;;;;4.58;94.71;96060.31;29395;202;63005;-56
2024/04/16 00:17:36;;;;;;;0.60;0.60;;;;;;;4.60;94.28;96060.84;29395;223;63009;-56
2024/04/16 00:18:07;;;;;;;0.60;0.60;;;;;;;4.57;94.18;96061.37;29395;233;63005;-57
2024/04/16 00:18:38;;;;;;;0.60;0.60;;;;;;;4.57;94.23;96057.88;29395;265;63009;-56
2024/04/16 00:19:09;;;;;;;0.60;0.60;;;;;;;4.54;94.84;96059.25;29395;202;63005;-57
2024/04/16 00:19:40;;;;;;;0.60;0.60;;;;;;;4.55;95.02;96065.41;29395;196;63009;-56
2024/04/16 00:20:12;;;;;;;0.60;0.60;;;;;;;4.54;94.90;96064.62;29393;249;64009;-56
2024/04/16 00:20:43;;;;;;;0.60;0.60;;;;;;;4.53;94.93;96062.19;29395;208;63009;-56
2024/04/16 00:21:14;;;;;;;0.60;0.60;;;;;;;4.53;94.67;96065.69;29395;240;63004;-56
2024/04/16 00:21:46;;;;;;;0.60;0.60;;;;;;;4.55;95.26;96068.91;29395;207;63022;-56
2024/04/16 00:22:17;;;;;;;0.60;0.60;;;;;;;4.55;95.02;96066.22;29395;238;63004;-56
2024/04/16 00:22:48;;;;;;;0.60;0.60;;;;;;;4.53;95.37;96070.25;29395;222;63009;-56
2024/04/16 00:23:21;;;;;;;0.60;0.60;;;;;;;4.51;95.66;96070.53;29395;288;63005;-55
2024/04/16 00:23:53;;;;;;;0.60;0.60;;;;;;;4.53;96.45;96072.94;29395;197;63009;-73
2024/04/16 00:24:24;;;;;;;0.60;0.60;;;;;;;4.52;96.72;96065.97;29395;216;63005;-56
2024/04/16 00:24:55;;;;;;;0.60;0.60;;;;;;;4.50;96.67;96078.91;29395;202;63009;-56
2024/04/16 00:25:26;;;;;;;0.60;0.60;;;;;;;4.58;95.95;96076.41;29393;208;64009;-56
2024/04/16 00:25:57;;;;;;;0.60;0.60;;;;;;;4.64;95.00;96061.91;29395;281;63009;-56
2024/04/16 00:26:29;;;;;;;0.60;0.60;;;;;;;4.67;94.59;96068.59;29393;209;64009;-56
2024/04/16 00:27:00;;;;;;;0.60;0.60;;;;;;;4.65;95.32;96066.19;29395;203;63009;-56
2024/04/16 00:27:31;;;;;;;0.60;0.60;;;;;;;4.63;96.25;96054.91;29395;212;63004;-77
2024/04/16 00:28:03;;;;;;;0.60;0.60;;;;;;;4.61;96.66;96054.38;29395;203;63009;-75
2024/04/16 00:28:34;;;;;;;0.60;0.60;;;;;;;4.61;96.81;96042.84;29395;198;63004;-56
2024/04/16 00:29:07;;;;;;;0.60;0.60;;;;;;;4.59;96.30;96039.63;29395;208;63015;-56
2024/04/16 00:29:39;;;;;;;0.60;0.60;;;;;;;4.58;96.62;96038.81;29395;208;63004;-77
2024/04/16 00:30:10;;;;;;;0.60;0.60;;;;;;;4.60;96.69;96043.91;29395;196;63009;-56
2024/04/16 00:30:42;;;;;;;0.60;0.60;;;;;;;4.61;96.45;96046.31;29395;217;63012;-56
2024/04/16 00:31:13;;;;;;;0.55;0.55;;;;;;;4.62;96.66;96050.63;29395;355;63009;-56
2024/04/16 00:31:44;;;;;;;0.50;0.50;;;;;;;4.63;96.83;96054.09;29393;222;64009;-56
2024/04/16 00:32:16;;;;;;;0.50;0.50;;;;;;;4.67;96.05;96049.78;29393;222;64013;-55
2024/04/16 00:32:47;;;;;;;0.60;0.60;;;;;;;4.69;95.04;96056.50;29395;204;63005;-56
2024/04/16 00:33:19;;;;;;;0.60;0.60;;;;;;;4.68;94.45;96060.28;29395;199;63009;-57
2024/04/16 00:33:50;;;;;;;0.60;0.60;;;;;;;4.70;94.11;96066.19;29395;266;63005;-56
2024/04/16 00:34:21;;;;;;;0.60;0.60;;;;;;;4.73;94.21;96062.13;29395;240;63009;-56
2024/04/16 00:34:54;;;;;;;0.60;0.60;;;;;;;4.76;94.06;96063.47;29395;308;63004;-56
2024/04/16 00:35:25;;;;;;;0.60;0.60;;;;;;;4.75;94.15;96061.84;29395;229;63009;-56
2024/04/16 00:35:56;;;;;;;0.60;0.60;;;;;;;4.71;93.78;96058.91;29395;205;63004;-56
2024/04/16 00:36:27;;;;;;;0.50;0.50;;;;;;;4.67;93.15;96058.66;29395;224;63009;-57
2024/04/16 00:36:58;;;;;;;0.60;0.60;;;;;;;4.64;93.28;96047.66;29395;202;63004;-56
2024/04/16 00:37:30;;;;;;;0.60;0.60;;;;;;;4.64;93.62;96047.66;29393;284;64013;-57
2024/04/16 00:38:01;;;;;;;0.60;0.60;;;;;;;4.66;93.13;96050.88;29395;227;63005;-55
2024/04/16 00:38:32;;;;;;;0.60;0.60;;;;;;;4.84;93.63;96046.78;29395;202;63009;-57
2024/04/16 00:39:03;;;;;;;0.60;0.60;;;;;;;4.90;92.31;96040.25;29395;202;63005;-57
2024/04/16 00:40:49;;;;;;;0.59;0.59;;;;;;;4.85;91.86;96037.63;88181;217;64005;-91
2024/04/16 00:41:20;;;;;;;0.60;0.60;;;;;;;4.81;92.55;96036.56;29416;315;64009;-93
2024/04/16 00:42:02;;;;;;;0.60;0.60;;;;;;;4.79;92.50;96044.09;29395;259;63004;-93
2024/04/16 00:42:35;;;;;;;0.60;0.60;;;;;;;4.76;92.65;96045.47;29394;199;64013;-94
2024/04/16 00:43:34;;;;;;;0.60;0.60;;;;;;;4.75;93.36;96062.66;29395;257;63004;-93
2024/04/16 00:44:10;;;;;;;0.60;0.60;;;;;;;4.74;93.95;96058.38;29395;297;63009;-94
2024/04/16 00:44:45;;;;;;;0.60;0.60;;;;;;;4.75;94.13;96061.84;29395;236;63005;-93
2024/04/16 00:45:39;;;;;;;0.60;0.60;;;;;;;4.72;93.87;96064.03;29395;203;63009;-94
2024/04/16 00:46:14;;;;;;;0.60;0.60;;;;;;;4.64;93.70;96063.78;29395;212;63005;-93
2024/04/16 00:46:50;;;;;;;0.60;0.60;;;;;;;4.62;94.51;96069.44;29395;253;63009;-93
2024/04/16 00:47:26;;;;;;;0.60;0.60;;;;;;;4.67;94.37;96058.66;29395;323;63005;-94
2024/04/16 00:48:15;;;;;;;0.60;0.60;;;;;;;4.71;93.86;96059.72;29394;197;64013;-91
2024/04/16 00:48:50;;;;;;;0.60;0.60;;;;;;;4.64;93.04;96048.47;29395;214;63004;-92
2024/04/16 00:50:18;;;;;;;0.60;0.60;;;;;;;4.56;93.14;96046.34;29394;202;64013;-91
2024/04/16 00:51:12;;;;;;;0.60;0.60;;;;;;;4.58;94.19;96033.44;29395;239;63004;-94
2024/04/16 00:51:44;;;;;;;0.60;0.60;;;;;;;4.61;94.53;96032.09;29395;226;63009;-93
2024/04/16 00:52:17;;;;;;;0.60;0.60;;;;;;;4.61;93.66;96015.97;29395;213;63005;-92
2024/04/16 00:52:50;;;;;;;0.60;0.60;;;;;;;4.59;93.58;96020.81;29395;240;63009;-95
2024/04/16 00:53:23;;;;;;;0.60;0.60;;;;;;;4.57;93.71;96020.28;29395;233;63005;-93
2024/04/16 00:53:56;;;;;;;0.60;0.60;;;;;;;4.49;94.19;96019.00;29395;204;63009;-93
2024/04/16 00:54:32;;;;;;;0.60;0.60;;;;;;;4.46;94.34;96019.53;29394;215;64009;-93
2024/04/16 00:55:10;;;;;;;0.60;0.60;;;;;;;4.48;94.68;96017.38;29395;231;63009;-92
2024/04/16 00:55:44;;;;;;;0.60;0.60;;;;;;;4.48;94.82;96016.56;29395;214;63004;-92
2024/04/16 00:56:42;;;;;;;0.60;0.60;;;;;;;4.48;94.91;96028.13;29395;230;63009;-92
2024/04/16 00:57:16;;;;;;;0.60;0.60;;;;;;;4.51;95.04;96024.88;29395;206;63000;-93
2024/04/16 00:57:48;;;;;;;0.60;0.60;;;;;;;4.54;96.09;96031.56;29395;228;63008;-94
2024/04/16 00:58:23;;;;;;;0.60;0.60;;;;;;;4.53;95.69;96028.06;29395;224;63004;-93
2024/04/16 00:58:56;;;;;;;0.60;0.60;;;;;;;4.51;95.17;96038.28;29395;218;63009;-94
2024/04/16 00:59:31;;;;;;;0.60;0.60;;;;;;;4.50;94.81;96028.66;29395;268;63005;-91
2024/04/16 01:00:08;;;;;;;0.60;0.60;;;;;;;4.51;94.65;96029.44;29394;202;64014;-94
2024/04/16 01:00:41;;;;;;;0.60;0.60;;;;;;;4.52;94.94;96033.72;29395;280;63005;-91
2024/04/16 01:01:15;;;;;;;0.60;0.60;;;;;;;4.52;95.23;96031.03;29395;220;63009;-93
2024/04/16 01:02:11;;;;;;;0.60;0.60;;;;;;;4.51;93.96;96032.13;29395;227;63005;-93
2024/04/16 01:02:43;;;;;;;0.60;0.60;;;;;;;4.47;93.99;96031.09;29394;223;64013;-94
2024/04/16 01:03:18;;;;;;;0.60;0.60;;;;;;;4.48;94.52;96027.31;29395;202;63004;-92
2024/04/16 01:04:29;;;;;;;0.60;0.60;;;;;;;4.56;93.59;96030.22;29395;227;63005;-56
2024/04/16 01:05:03;;;;;;;0.50;0.50;;;;;;;4.62;93.25;96026.44;29394;218;64013;-56
2024/04/16 01:05:35;;;;;;;0.60;0.60;;;;;;;4.69;92.35;96023.44;29395;218;63004;-56
2024/04/16 01:06:07;;;;;;;0.60;0.60;;;;;;;4.68;92.53;96009.22;29395;258;63016;-56
2024/04/16 01:06:38;;;;;;;0.60;0.60;;;;;;;4.65;92.98;96007.06;29395;229;63005;-75
2024/04/16 01:07:11;;;;;;;0.60;0.60;;;;;;;4.61;93.19;95995.28;29395;240;63009;-56
2024/04/16 01:07:42;;;;;;;0.60;0.60;;;;;;;4.57;93.47;95988.84;29395;219;63011;-77
2024/04/16 01:08:14;;;;;;;0.60;0.60;;;;;;;4.56;93.82;95989.12;29395;218;63027;-56
2024/04/16 01:08:46;;;;;;;0.60;0.60;;;;;;;4.54;93.65;95992.06;29395;308;63005;-56
2024/04/16 01:09:18;;;;;;;0.60;0.60;;;;;;;4.53;93.92;95995.84;29395;226;63009;-56
2024/04/16 01:09:49;;;;;;;0.60;0.60;;;;;;;4.52;94.31;95999.59;29395;206;63008;-54
2024/04/16 01:10:21;;;;;;;0.60;0.60;;;;;;;4.51;94.61;95998.00;29394;212;64013;-76
2024/04/16 01:10:52;;;;;;;0.60;0.60;;;;;;;4.49;94.80;95999.37;29395;202;63004;-56
2024/04/16 01:11:28;;;;;;;0.50;0.50;;;;;;;4.48;94.59;96005.84;29395;208;63013;-56
2024/04/16 01:12:00;;;;;;;0.60;0.60;;;;;;;4.50;94.45;96001.78;29395;227;63004;-81
2024/04/16 01:12:40;;;;;;;0.60;0.60;;;;;;;4.52;94.17;96002.28;29395;262;63009;-56
2024/04/16 01:13:12;;;;;;;0.60;0.60;;;;;;;4.52;93.88;96002.28;29417;218;63004;-55
2024/04/16 01:13:44;;;;;;;0.60;0.60;;;;;;;4.55;93.68;96009.00;29395;197;63009;-56
2024/04/16 01:14:15;;;;;;;0.60;0.60;;;;;;;4.51;93.83;96011.44;29394;341;64009;-55
2024/04/16 01:14:47;;;;;;;0.60;0.60;;;;;;;4.55;93.34;96009.81;29395;301;63009;-78
2024/04/16 01:15:18;;;;;;;0.60;0.60;;;;;;;4.56;93.29;96007.91;29395;198;63005;-57
2024/04/16 01:15:49;;;;;;;0.60;0.60;;;;;;;4.54;93.31;96013.56;29395;243;63009;-77
2024/04/16 01:16:24;;;;;;;0.60;0.60;;;;;;;4.53;92.91;96014.66;29395;206;63005;-76
2024/04/16 01:16:56;;;;;;;0.60;0.60;;;;;;;4.50;93.15;96025.97;29395;199;63009;-78
2024/04/16 01:17:27;;;;;;;0.60;0.60;;;;;;;4.50;93.18;96025.97;29395;210;63005;-57
2024/04/16 01:17:59;;;;;;;0.60;0.60;;;;;;;4.51;93.83;96032.91;29395;212;63018;-56
2024/04/16 01:18:30;;;;;;;0.60;0.60;;;;;;;4.63;93.71;96036.09;29395;233;63004;-56
2024/04/16 01:19:02;;;;;;;0.60;0.60;;;;;;;4.67;93.02;96026.41;29395;234;63009;-76
2024/04/16 01:19:34;;;;;;;0.60;0.60;;;;;;;4.65;92.85;96028.56;29394;293;64009;-56
2024/04/16 01:20:06;;;;;;;0.60;0.60;;;;;;;4.62;92.62;96028.31;29395;197;63009;-56
2024/04/16 01:20:38;;;;;;;0.60;0.60;;;;;;;4.57;92.57;96031.81;29395;210;63004;-75
2024/04/16 01:21:10;;;;;;;0.60;0.60;;;;;;;4.50;93.33;96025.16;29395;203;63009;-77
2024/04/16 01:21:41;;;;;;;0.60;0.60;;;;;;;4.47;94.11;96015.78;29395;199;63005;-55
2024/04/16 01:22:12;;;;;;;0.60;0.60;;;;;;;4.46;94.58;96011.47;29395;199;63009;-57
2024/04/16 01:22:48;;;;;;;0.60;0.60;;;;;;;4.47;94.17;96005.03;29395;213;63005;-74
2024/04/16 01:23:19;;;;;;;0.60;0.60;;;;;;;4.47;93.97;95996.97;29395;216;63009;-56
2024/04/16 01:23:50;;;;;;;0.60;0.60;;;;;;;4.46;94.00;95992.69;29395;234;63005;-74
2024/04/16 01:24:21;;;;;;;0.50;0.50;;;;;;;4.50;94.43;95980.31;29395;197;63009;-57
2024/04/16 01:24:53;;;;;;;0.60;0.60;;;;;;;4.57;94.09;95978.09;29394;300;64009;-56
2024/04/16 01:25:27;;;;;;;0.60;0.60;;;;;;;4.57;93.09;95978.09;29394;233;64013;-56
2024/04/16 01:25:58;;;;;;;0.60;0.60;;;;;;;4.54;92.99;95969.78;29395;232;63004;-56
2024/04/16 01:26:30;;;;;;;0.60;0.60;;;;;;;4.49;92.92;95970.63;29395;240;63012;-56
2024/04/16 01:27:01;;;;;;;0.60;0.60;;;;;;;4.46;94.00;95971.19;29395;274;63004;-55
2024/04/16 01:27:32;;;;;;;0.60;0.60;;;;;;;4.54;92.93;95957.16;29395;310;63009;-71
2024/04/16 01:28:04;;;;;;;0.60;0.60;;;;;;;4.57;92.61;95967.34;29394;198;64004;-56
2024/04/16 01:28:37;;;;;;;0.55;0.55;;;;;;;4.54;94.24;95959.84;29395;276;63008;-56
2024/04/16 01:29:09;;;;;;;0.57;0.57;;;;;;;4.51;93.13;95968.44;29395;208;63005;-55
2024/04/16 01:29:40;;;;;;;0.60;0.60;;;;;;;4.48;93.22;95977.09;29395;215;63005;-55
2024/04/16 01:30:12;;;;;;;0.60;0.60;;;;;;;4.47;93.25;95978.16;29395;240;63005;-56
2024/04/16 01:30:43;;;;;;;0.60;0.60;;;;;;;4.48;93.97;95985.16;29394;295;64013;-56
2024/04/16 01:31:15;;;;;;;0.50;0.50;;;;;;;4.49;93.83;95984.06;29395;213;63005;-56
2024/04/16 01:31:47;;;;;;;0.60;0.60;;;;;;;4.58;93.42;95993.13;29395;216;63009;-57
2024/04/16 01:32:18;;;;;;;0.60;0.60;;;;;;;4.59;92.56;95981.31;29395;295;63009;-55
2024/04/16 01:32:49;;;;;;;0.60;0.60;;;;;;;4.56;92.26;95997.19;29395;208;63009;-57
2024/04/16 01:33:21;;;;;;;0.55;0.55;;;;;;;4.71;91.66;95984.47;29395;227;63004;-55
2024/04/16 01:33:52;;;;;;;0.60;0.60;;;;;;;4.71;92.04;95989.84;29395;197;63009;-56
2024/04/16 01:34:24;;;;;;;0.60;0.60;;;;;;;4.75;91.25;95973.19;29395;202;63004;-55
2024/04/16 01:34:55;;;;;;;0.60;0.60;;;;;;;4.71;91.38;95962.97;29395;293;63008;-56
2024/04/16 01:35:26;;;;;;;0.60;0.60;;;;;;;4.65;92.17;95942.59;29395;238;63005;-55
2024/04/16 01:35:59;;;;;;;0.50;0.50;;;;;;;4.60;92.09;95953.37;29394;227;64014;-55
2024/04/16 01:36:30;;;;;;;0.60;0.60;;;;;;;4.55;92.79;95963.34;29395;213;63005;-55
2024/04/16 01:37:01;;;;;;;0.60;0.60;;;;;;;4.51;93.31;95965.75;29395;257;63013;-55
2024/04/16 01:37:32;;;;;;;0.60;0.60;;;;;;;4.50;93.42;95977.63;29395;229;63005;-55
2024/04/16 01:38:05;;;;;;;0.60;0.60;;;;;;;4.49;93.42;95984.06;29395;229;63009;-55
2024/04/16 01:38:37;;;;;;;0.60;0.60;;;;;;;4.51;93.28;95989.94;29395;227;63005;-55
2024/04/16 01:39:08;;;;;;;0.60;0.60;;;;;;;4.52;93.45;95996.91;29395;233;63016;-76
2024/04/16 01:39:39;;;;;;;0.60;0.60;;;;;;;4.53;93.46;95993.16;29395;293;63004;-57
2024/04/16 01:40:11;;;;;;;0.60;0.60;;;;;;;4.51;94.45;95994.50;29395;202;63009;-56
2024/04/16 01:40:43;;;;;;;0.60;0.60;;;;;;;4.54;93.90;95999.34;29395;223;63004;-58
2024/04/16 01:41:16;;;;;;;0.60;0.60;;;;;;;4.51;93.31;96000.69;29394;205;64013;-56
2024/04/16 01:41:47;;;;;;;0.60;0.60;;;;;;;4.48;92.96;96005.84;29395;208;63004;-57
2024/04/16 01:42:18;;;;;;;0.60;0.60;;;;;;;4.46;93.35;96003.41;29395;208;63008;-55
2024/04/16 01:42:49;;;;;;;0.50;0.50;;;;;;;4.42;93.61;96001.56;29395;233;63004;-56
2024/04/16 01:43:21;;;;;;;0.60;0.60;;;;;;;4.37;93.76;96010.44;29395;214;63009;-55
2024/04/16 01:43:52;;;;;;;0.60;0.60;;;;;;;4.45;93.19;96001.81;29395;214;63005;-57
2024/04/16 01:44:23;;;;;;;0.60;0.60;;;;;;;4.49;93.19;95989.44;29395;222;63009;-59
2024/04/16 01:44:58;;;;;;;0.60;0.60;;;;;;;4.45;92.04;95985.69;29395;209;63000;-56
2024/04/16 01:45:30;;;;;;;0.60;0.60;;;;;;;4.41;92.25;95979.25;29395;209;63009;-56
2024/04/16 01:46:01;;;;;;;0.60;0.60;;;;;;;4.39;93.19;95976.06;29395;234;63005;-71
2024/04/16 01:46:33;;;;;;;0.60;0.60;;;;;;;4.39;93.58;95976.06;29394;214;64013;-57
2024/04/16 01:47:04;;;;;;;0.60;0.60;;;;;;;4.37;93.22;95979.00;29395;202;63005;-74
2024/04/16 01:47:35;;;;;;;0.60;0.60;;;;;;;4.37;93.40;95962.91;29395;222;63009;-57
2024/04/16 01:48:07;;;;;;;0.60;0.60;;;;;;;4.45;93.23;95961.53;29395;222;63004;-56
2024/04/16 01:48:39;;;;;;;0.60;0.60;;;;;;;4.50;92.98;95950.75;29395;204;63009;-56
2024/04/16 01:49:10;;;;;;;0.60;0.60;;;;;;;4.52;92.51;95943.19;29395;231;63004;-73
2024/04/16 01:49:42;;;;;;;0.60;0.60;;;;;;;4.49;92.26;95938.41;29395;218;63008;-55
2024/04/16 01:50:13;;;;;;;0.60;0.60;;;;;;;4.44;92.60;95941.13;29395;211;63004;-56
2024/04/16 01:50:45;;;;;;;0.60;0.60;;;;;;;4.40;93.18;95945.44;29395;229;63009;-56
2024/04/16 01:51:17;;;;;;;0.60;0.60;;;;;;;4.37;93.53;95946.78;29394;232;64009;-55
2024/04/16 01:51:48;;;;;;;0.60;0.60;;;;;;;4.36;93.80;95952.44;29395;232;63009;-56
2024/04/16 01:52:19;;;;;;;0.55;0.55;;;;;;;4.34;93.78;95958.06;29395;307;63005;-56
2024/04/16 01:52:51;;;;;;;0.60;0.60;;;;;;;4.31;94.32;95974.72;29395;227;63009;-57
2024/04/16 01:53:22;;;;;;;0.60;0.60;;;;;;;4.32;94.52;95986.28;29395;354;63005;-57
2024/04/16 01:53:53;;;;;;;0.60;0.60;;;;;;;4.35;94.52;95985.72;29395;235;63009;-56
2024/04/16 01:54:25;;;;;;;0.60;0.60;;;;;;;4.37;94.06;95987.06;29395;222;63005;-76
2024/04/16 01:54:56;;;;;;;0.60;0.60;;;;;;;4.48;93.95;95984.34;29395;274;63009;-75
2024/04/16 01:55:27;;;;;;;0.60;0.60;;;;;;;4.53;93.06;95977.03;29395;203;63000;-61
2024/04/16 01:56:01;;;;;;;0.60;0.60;;;;;;;4.52;91.89;95975.44;29395;262;63009;-56
2024/04/16 01:56:35;;;;;;;0.60;0.60;;;;;;;4.46;92.83;95981.94;29394;231;64009;-57
2024/04/16 01:57:07;;;;;;;0.60;0.60;;;;;;;4.40;92.94;95977.66;29395;196;63009;-56
2024/04/16 01:57:39;;;;;;;0.60;0.60;;;;;;;4.30;92.73;95967.75;29395;211;63004;-56
2024/04/16 01:58:11;;;;;;;0.60;0.60;;;;;;;4.28;93.28;95974.47;29395;223;63009;-56
2024/04/16 01:58:42;;;;;;;0.60;0.60;;;;;;;4.24;93.39;95968.03;29395;296;63005;-56
2024/04/16 01:59:13;;;;;;;0.60;0.60;;;;;;;4.25;93.54;95966.97;29395;236;63009;-74
2024/04/16 01:59:44;;;;;;;0.60;0.60;;;;;;;4.24;93.38;95971.53;29395;237;63005;-56
2024/04/16 02:00:16;;;;;;;0.60;0.60;;;;;;;4.26;93.47;95961.31;29395;212;63009;-55
2024/04/16 02:00:47;;;;;;;0.60;0.60;;;;;;;4.38;92.73;95958.31;29395;244;63005;-56
2024/04/16 02:01:18;;;;;;;0.60;0.60;;;;;;;4.33;92.71;95958.34;29395;205;63009;-57
2024/04/16 02:01:50;;;;;;;0.60;0.60;;;;;;;4.31;93.23;95960.50;29394;250;64009;-55
2024/04/16 02:02:22;;;;;;;0.50;0.50;;;;;;;4.28;92.41;95958.38;29395;215;63009;-57
2024/04/16 02:02:54;;;;;;;0.60;0.60;;;;;;;4.26;92.44;95968.56;29395;221;63004;-56
2024/04/16 02:03:26;;;;;;;0.60;0.60;;;;;;;4.27;92.57;95975.56;29395;208;63009;-56
2024/04/16 02:03:57;;;;;;;0.60;0.60;;;;;;;4.28;93.29;95975.28;29395;212;63004;-57
2024/04/16 02:04:29;;;;;;;0.60;0.60;;;;;;;4.36;93.82;95968.53;29395;213;63009;-55
2024/04/16 02:05:01;;;;;;;0.60;0.60;;;;;;;4.34;93.36;95968.81;29395;247;63004;-58
2024/04/16 02:05:32;;;;;;;0.60;0.60;;;;;;;4.30;92.40;95962.37;29373;202;63008;-54
2024/04/16 02:06:05;;;;;;;0.60;0.60;;;;;;;4.31;92.60;95987.34;29395;287;63005;-55
2024/04/16 02:06:37;;;;;;;0.60;0.60;;;;;;;4.31;92.98;95982.78;29395;238;63009;-55
2024/04/16 02:07:08;;;;;;;0.60;0.60;;;;;;;4.28;93.35;95977.16;29394;240;64009;-55
2024/04/16 02:07:39;;;;;;;0.60;0.60;;;;;;;4.29;93.76;95976.09;29395;235;63009;-55
2024/04/16 02:08:14;;;;;;;0.60;0.60;;;;;;;4.29;93.64;95959.97;29395;223;63007;-56
2024/04/16 02:08:45;;;;;;;0.60;0.60;;;;;;;4.28;93.85;95953.81;29395;228;63009;-55
2024/04/16 02:09:16;;;;;;;0.60;0.60;;;;;;;4.27;93.51;95952.19;29395;308;63005;-55
2024/04/16 02:09:47;;;;;;;0.60;0.60;;;;;;;4.30;93.64;95950.84;29395;197;63009;-56
2024/04/16 02:10:18;;;;;;;0.60;0.60;;;;;;;4.30;94.37;95956.22;29395;198;63004;-56
2024/04/16 02:10:59;;;;;;;0.60;0.60;;;;;;;4.30;94.33;95957.00;29395;212;63009;-54
2024/04/16 02:11:30;;;;;;;;;;;;;;;4.29;93.87;95963.47;29996;983;6004;-58
2024/04/16 02:12:02;;;;;;;0.60;0.60;;;;;;;4.28;94.42;95961.84;29422;245;63000;-55
2024/04/16 02:12:33;;;;;;;0.60;0.60;;;;;;;4.29;94.32;95965.34;29394;232;64013;-55
2024/04/16 02:13:04;;;;;;;0.60;0.60;;;;;;;4.25;94.76;95969.66;29395;327;63004;-55
2024/04/16 02:13:36;;;;;;;0.60;0.60;;;;;;;4.27;94.55;95972.88;29395;204;63009;-70
2024/04/16 02:14:07;;;;;;;0.60;0.60;;;;;;;4.24;94.42;95966.16;29395;202;63005;-55
2024/04/16 02:14:39;;;;;;;0.60;0.60;;;;;;;4.24;94.81;95968.03;29395;202;63018;-56
2024/04/16 02:15:10;;;;;;;0.60;0.60;;;;;;;4.25;94.75;95973.16;29395;199;63005;-55
2024/04/16 02:15:44;;;;;;;0.60;0.60;;;;;;;4.25;93.89;95970.47;29395;318;63005;-56
2024/04/16 02:16:15;;;;;;;0.60;0.60;;;;;;;4.25;93.89;95975.03;29395;365;63005;-56
2024/04/16 02:16:47;;;;;;;0.60;0.60;;;;;;;4.26;93.37;95971.25;29395;214;63009;-56
2024/04/16 02:17:18;;;;;;;0.50;0.50;;;;;;;4.25;93.02;95954.34;29394;255;64009;-56
2024/04/16 02:17:49;;;;;;;0.60;0.60;;;;;;;4.23;93.47;95966.44;29395;213;63009;-56
2024/04/16 02:18:21;;;;;;;0.60;0.60;;;;;;;4.25;93.75;95967.78;29395;237;63004;-55
2024/04/16 02:18:53;;;;;;;0.60;0.60;;;;;;;4.28;93.54;95953.81;29395;226;63009;-56
2024/04/16 02:19:27;;;;;;;0.60;0.60;;;;;;;4.29;93.87;95955.41;29395;246;63004;-56
2024/04/16 02:20:00;;;;;;;0.90;0.90;;;;;;;4.27;94.27;95943.34;29395;196;63008;-75
2024/04/16 02:20:32;;;;;;;0.60;0.60;;;;;;;4.23;94.05;95943.06;29395;231;63004;-57
2024/04/16 02:21:09;;;;;;;0.60;0.60;;;;;;;4.22;94.15;95944.16;29395;202;63009;-56
2024/04/16 02:21:40;;;;;;;0.60;0.60;;;;;;;4.21;94.34;95941.75;29394;230;64005;-56
2024/04/16 02:22:11;;;;;;;0.60;0.60;;;;;;;4.16;93.78;95939.88;29395;258;63009;-57
2024/04/16 02:22:52;;;;;;;0.60;0.60;;;;;;;4.15;93.70;95942.88;29394;238;64009;-56
2024/04/16 02:23:23;;;;;;;0.60;0.60;;;;;;;4.12;93.67;95949.59;29395;200;63009;-55
2024/04/16 02:23:54;;;;;;;0.60;0.60;;;;;;;4.14;93.80;95946.63;29395;208;63005;-56
2024/04/16 02:24:26;;;;;;;0.60;0.60;;;;;;;4.22;94.50;95937.97;29395;197;63004;-56
2024/04/16 02:24:57;;;;;;;0.60;0.60;;;;;;;4.25;94.83;95942.81;29395;203;63004;-57
2024/04/16 02:25:31;;;;;;;0.50;0.50;;;;;;;4.26;95.07;95933.66;29395;204;63009;-56
2024/04/16 02:26:03;;;;;;;0.60;0.60;;;;;;;4.25;95.25;95937.44;29394;236;64004;-56
2024/04/16 02:26:34;;;;;;;0.60;0.60;;;;;;;4.22;94.98;95932.59;29395;251;63015;-55
2024/04/16 02:27:06;;;;;;;0.60;0.60;;;;;;;4.18;94.37;95928.88;29395;202;63004;-56
2024/04/16 02:27:37;;;;;;;0.60;0.60;;;;;;;4.11;94.53;95934.56;29394;231;64014;-75
2024/04/16 02:28:08;;;;;;;0.60;0.60;;;;;;;4.08;94.27;95942.34;29395;221;63005;-56
2024/04/16 02:28:41;;;;;;;0.60;0.60;;;;;;;4.12;94.25;95938.03;29395;209;63017;-56
2024/04/16 02:29:13;;;;;;;0.60;0.60;;;;;;;4.17;94.33;95946.06;29395;262;63005;-56
2024/04/16 02:29:44;;;;;;;0.60;0.60;;;;;;;4.17;94.51;95940.69;29395;206;63009;-57
2024/04/16 02:30:15;;;;;;;0.55;0.55;;;;;;;4.18;95.00;95942.28;29395;226;63005;-56
2024/04/16 02:30:46;;;;;;;0.60;0.60;;;;;;;4.18;95.42;95944.97;29395;209;63009;-56
2024/04/16 02:31:18;;;;;;;0.60;0.60;;;;;;;4.19;94.86;95943.91;29395;219;63005;-56
2024/04/16 02:31:49;;;;;;;0.60;0.60;;;;;;;4.19;94.50;95946.59;29395;262;63009;-56
2024/04/16 02:32:20;;;;;;;0.60;0.60;;;;;;;4.20;94.92;95942.81;29395;283;63000;-58
2024/04/16 02:32:51;;;;;;;0.60;0.60;;;;;;;4.20;95.24;95945.50;29394;229;64013;-56
2024/04/16 02:33:22;;;;;;;0.60;0.60;;;;;;;4.19;95.04;95938.53;29395;205;63004;-56
2024/04/16 02:33:53;;;;;;;0.60;0.60;;;;;;;4.18;95.14;95944.97;29395;237;63009;-56
2024/04/16 02:34:25;;;;;;;0.60;0.60;;;;;;;4.15;94.70;95937.50;29394;277;64008;-74
2024/04/16 02:35:00;;;;;;;0.60;0.60;;;;;;;4.15;95.04;95937.50;29395;217;63009;-57
2024/04/16 02:35:34;;;;;;;0.57;0.57;;;;;;;4.16;94.80;95944.47;29395;211;63009;-56
2024/04/16 02:36:06;;;;;;;0.60;0.60;;;;;;;4.14;94.51;95949.31;29395;227;63009;-56
2024/04/16 02:36:38;;;;;;;0.60;0.60;;;;;;;4.10;95.10;95950.94;29395;206;63005;-57
2024/04/16 02:37:11;;;;;;;0.50;0.50;;;;;;;4.09;95.49;95939.41;29395;223;63016;-56
2024/04/16 02:37:48;;;;;;;0.60;0.60;;;;;;;4.09;94.89;95949.34;29395;196;63010;-56
2024/04/16 02:38:19;;;;;;;0.60;0.60;;;;;;;4.07;94.85;95943.44;29394;222;64013;-67
2024/04/16 02:38:50;;;;;;;0.60;0.60;;;;;;;4.06;94.95;95949.88;29395;213;63005;-56
2024/04/16 02:39:22;;;;;;;0.60;0.60;;;;;;;4.07;95.31;95956.84;29395;292;63004;-57
2024/04/16 02:39:53;;;;;;;0.60;0.60;;;;;;;4.10;95.52;95956.31;29395;229;63004;-56